Bordulac, North Dakota
Current Conditions -  °F | °C
As of 12:15 PM on Friday 24 Oct 2014 (Local Time) from K46D Reporting Station
Broken Clouds Broken Clouds  
Wind Chill: 70°   Ceiling: 11000
Heat Index: 70°   Visibility: 10mi
Dew Point: 41°   Wind: 24mph
Humidity: 35%   Direction: 300°WNW
Pressure: 29.84"   Gusts: 30mph
Location:  47.4573°N, 99.0752°W
Report Text: K46D 241715Z AUTO 30021G26KT 10SM BKN110 21/05 A2984 RMK AO2
Loading
Personal Weather Stations






























Interactive Weather Map
Tropical Storm Tracking
New forecast layout! Learn more

10-Day Weather Forecast

Advertisements
Track Severe Weather on mobile